createdAt,value
2023-03-24T00:01:14.879Z,2.50
2023-03-24T00:03:46.105Z,2.40
2023-03-24T00:06:30.921Z,2.30
2023-03-24T00:09:07.226Z,2.50
2023-03-24T00:11:47.619Z,2.33
2023-03-24T00:14:34.638Z,2.60
2023-03-24T00:17:19.021Z,2.43
2023-03-24T00:19:58.581Z,2.13
2023-03-24T00:23:04.306Z,2.40
2023-03-24T00:26:03.890Z,2.20
2023-03-24T00:28:52.044Z,2.60
2023-03-24T00:31:28.160Z,2.50
2023-03-24T00:34:12.714Z,2.70
2023-03-24T00:36:55.056Z,2.40
2023-03-24T00:39:53.880Z,2.50
2023-03-24T00:42:45.542Z,2.40
2023-03-24T00:45:20.526Z,2.10
2023-03-24T00:48:13.133Z,2.50
2023-03-24T00:51:09.811Z,2.20
2023-03-24T00:53:59.658Z,2.43
2023-03-24T00:56:56.297Z,2.53
2023-03-24T00:59:31.758Z,2.47
2023-03-24T01:02:20.869Z,2.60
2023-03-24T01:05:02.027Z,2.30
2023-03-24T01:07:53.863Z,2.40
2023-03-24T01:10:38.792Z,2.40
2023-03-24T01:13:21.756Z,2.50
2023-03-24T01:16:01.600Z,2.50
2023-03-24T01:18:46.638Z,2.10
2023-03-24T01:21:20.253Z,2.60
2023-03-24T01:24:04.573Z,2.53
2023-03-24T01:26:36.907Z,2.50
2023-03-24T01:29:34.450Z,2.17
2023-03-24T01:32:21.065Z,2.40
2023-03-24T01:35:20.738Z,2.27
2023-03-24T01:38:11.919Z,2.10
2023-03-24T01:40:58.788Z,2.40
2023-03-24T01:43:47.610Z,2.80
2023-03-24T01:47:06.238Z,2.23
2023-03-24T01:49:49.774Z,2.40
2023-03-24T01:52:47.795Z,2.20
2023-03-24T01:55:53.591Z,2.53
2023-03-24T01:58:36.908Z,2.60
2023-03-24T02:01:27.175Z,2.27
2023-03-24T02:04:47.900Z,2.10
2023-03-24T02:07:32.423Z,2.27
2023-03-24T02:10:17.037Z,2.13
2023-03-24T02:13:18.498Z,2.27
2023-03-24T02:16:06.001Z,2.67
2023-03-24T02:18:49.044Z,2.60
2023-03-24T02:22:19.015Z,2.53
2023-03-24T02:25:38.291Z,2.67
2023-03-24T02:28:48.654Z,2.57
2023-03-24T02:32:32.145Z,2.00
2023-03-24T02:36:01.653Z,2.40
2023-03-24T02:39:26.029Z,2.37
2023-03-24T02:42:21.838Z,2.07
2023-03-24T02:45:14.209Z,2.33
2023-03-24T02:48:12.580Z,2.23
2023-03-24T02:50:57.214Z,2.17
2023-03-24T02:54:03.682Z,2.10
2023-03-24T02:56:57.976Z,1.93
2023-03-24T03:00:04.356Z,2.00
2023-03-24T03:03:03.714Z,2.27
2023-03-24T03:05:48.453Z,2.20
2023-03-24T03:08:23.009Z,2.37
2023-03-24T03:11:10.542Z,2.30
2023-03-24T03:14:09.428Z,2.20
2023-03-24T03:17:16.373Z,2.20
2023-03-24T03:20:16.678Z,2.47
2023-03-24T03:23:06.165Z,2.50
2023-03-24T03:26:06.308Z,2.60
2023-03-24T03:28:51.605Z,2.00
2023-03-24T03:31:33.992Z,2.30
2023-03-24T03:34:36.296Z,2.17
2023-03-24T03:37:22.957Z,2.13
2023-03-24T03:40:06.941Z,2.53
2023-03-24T03:42:39.061Z,2.60
2023-03-24T03:45:21.092Z,2.40
2023-03-24T03:48:08.588Z,2.30
2023-03-24T03:50:41.637Z,2.10
2023-03-24T03:53:33.994Z,2.27
2023-03-24T03:56:14.127Z,2.47
2023-03-24T03:59:05.839Z,2.57
2023-03-24T04:02:06.843Z,2.70
2023-03-24T04:05:30.323Z,2.43
2023-03-24T04:08:37.789Z,2.40
2023-03-24T04:11:54.078Z,2.47
2023-03-24T04:15:13.448Z,2.50
2023-03-24T04:18:32.388Z,2.67
2023-03-24T04:22:06.416Z,2.40
2023-03-24T04:25:08.302Z,2.50
2023-03-24T04:27:51.312Z,2.60
2023-03-24T04:30:40.268Z,2.57
2023-03-24T04:33:22.649Z,2.67
2023-03-24T04:36:06.978Z,2.57
2023-03-24T04:38:57.857Z,2.80
2023-03-24T04:41:53.381Z,2.70
2023-03-24T04:44:33.676Z,2.73
2023-03-24T04:47:44.347Z,2.50
2023-03-24T04:50:47.032Z,2.60
2023-03-24T04:53:41.741Z,2.83
2023-03-24T04:56:42.667Z,2.40
2023-03-24T04:59:34.842Z,3.30
2023-03-24T05:02:12.119Z,2.87
2023-03-24T05:05:22.738Z,3.10
2023-03-24T05:08:03.578Z,2.67
2023-03-24T05:10:42.185Z,2.90
2023-03-24T05:13:16.877Z,2.80
2023-03-24T05:16:06.265Z,2.80
2023-03-24T05:19:16.210Z,2.77
2023-03-24T05:22:08.756Z,3.03
2023-03-24T05:24:49.604Z,3.37
2023-03-24T05:27:43.639Z,3.20
2023-03-24T05:30:30.482Z,3.23
2023-03-24T05:33:32.046Z,3.20
2023-03-24T05:36:07.070Z,3.43
2023-03-24T05:38:48.523Z,3.30
2023-03-24T05:41:31.133Z,3.60
2023-03-24T05:44:13.992Z,3.63
2023-03-24T05:46:56.514Z,3.30
2023-03-24T05:49:48.312Z,3.73
2023-03-24T05:52:20.883Z,3.70
2023-03-24T05:55:12.096Z,3.60
2023-03-24T05:58:06.267Z,3.57
2023-03-24T06:01:10.545Z,4.50
2023-03-24T06:03:52.170Z,3.37
2023-03-24T06:06:49.405Z,3.50
2023-03-24T06:09:24.332Z,3.17
2023-03-24T06:11:56.111Z,3.40
2023-03-24T06:14:39.078Z,2.90
2023-03-24T06:17:25.494Z,3.00
2023-03-24T06:20:06.011Z,2.90
2023-03-24T06:23:07.690Z,3.00
2023-03-24T06:25:51.469Z,3.10
2023-03-24T06:28:26.465Z,2.80
2023-03-24T06:31:02.520Z,2.80
2023-03-24T06:34:05.422Z,2.60
2023-03-24T06:36:51.324Z,2.80
2023-03-24T06:39:29.214Z,3.20
2023-03-24T06:42:22.769Z,3.10
2023-03-24T06:45:14.347Z,2.90
2023-03-24T06:47:45.826Z,2.97
2023-03-24T06:50:30.332Z,3.10
2023-03-24T06:53:17.002Z,3.30
2023-03-24T06:55:52.858Z,3.03
2023-03-24T06:58:37.329Z,3.03
2023-03-24T07:01:24.921Z,2.70
2023-03-24T07:04:04.446Z,2.90
2023-03-24T07:06:58.543Z,2.80
2023-03-24T07:09:38.757Z,2.97
2023-03-24T07:12:26.900Z,3.10
2023-03-24T07:15:11.872Z,3.70
2023-03-24T07:18:05.000Z,3.60
2023-03-24T07:21:06.629Z,3.50
2023-03-24T07:23:55.861Z,3.57
2023-03-24T07:26:43.244Z,3.50
2023-03-24T07:29:31.581Z,4.20
2023-03-24T07:32:21.980Z,3.80
2023-03-24T07:35:03.816Z,3.70
2023-03-24T07:37:44.487Z,3.83
2023-03-24T07:40:45.150Z,4.00
2023-03-24T07:43:31.302Z,3.63
2023-03-24T07:46:28.607Z,3.80
2023-03-24T07:49:18.872Z,3.63
2023-03-24T07:52:19.441Z,3.87
2023-03-24T07:55:05.323Z,4.43
2023-03-24T07:58:05.362Z,3.97
2023-03-24T08:01:00.132Z,4.10
2023-03-24T08:04:05.520Z,3.60
2023-03-24T08:07:33.157Z,3.50
2023-03-24T08:10:16.193Z,3.53
2023-03-24T08:13:04.830Z,4.10
2023-03-24T08:15:41.563Z,3.17
2023-03-24T08:18:33.952Z,3.63
2023-03-24T08:21:42.124Z,4.03
2023-03-24T08:24:14.330Z,3.40
2023-03-24T08:26:46.915Z,3.53
2023-03-24T08:29:40.563Z,2.83
2023-03-24T08:32:14.481Z,3.23
2023-03-24T08:35:19.254Z,3.20
2023-03-24T08:38:07.790Z,3.00
2023-03-24T08:40:50.174Z,3.13
2023-03-24T08:43:41.400Z,2.87
2023-03-24T08:46:20.099Z,3.23
2023-03-24T08:48:50.116Z,3.40
2023-03-24T08:51:32.302Z,3.53
2023-03-24T08:54:23.666Z,3.60
2023-03-24T08:57:19.058Z,3.47
2023-03-24T09:00:04.734Z,3.50
2023-03-24T09:02:51.358Z,2.70
2023-03-24T09:05:36.475Z,2.83
2023-03-24T09:08:40.621Z,3.00
2023-03-24T09:11:22.290Z,2.90
2023-03-24T09:14:02.640Z,2.87
2023-03-24T09:16:50.511Z,2.60
2023-03-24T09:19:46.393Z,2.80
2023-03-24T09:22:17.870Z,2.53
2023-03-24T09:24:50.910Z,2.53
2023-03-24T09:27:36.034Z,2.97
2023-03-24T09:30:18.316Z,2.70
2023-03-24T09:32:59.360Z,2.63
2023-03-24T09:36:00.285Z,2.40
2023-03-24T09:38:47.990Z,2.90
2023-03-24T09:41:35.004Z,2.83
2023-03-24T09:44:29.814Z,2.80
2023-03-24T09:47:10.961Z,2.87
2023-03-24T09:50:09.071Z,2.60
2023-03-24T09:53:11.171Z,2.43
2023-03-24T09:56:15.344Z,2.73
2023-03-24T09:58:57.955Z,2.50
2023-03-24T10:01:52.749Z,2.77
2023-03-24T10:04:35.556Z,2.70
2023-03-24T10:07:36.037Z,2.80
2023-03-24T10:10:33.339Z,2.53
2023-03-24T10:13:15.689Z,2.57
2023-03-24T10:15:57.134Z,2.63
2023-03-24T10:18:44.796Z,2.97
2023-03-24T10:21:39.853Z,2.67
2023-03-24T10:24:26.883Z,2.57
2023-03-24T10:27:14.677Z,2.50
2023-03-24T10:29:53.611Z,2.60
2023-03-24T10:32:37.735Z,2.17
2023-03-24T10:35:29.466Z,2.23
2023-03-24T10:38:22.920Z,2.60
2023-03-24T10:41:13.384Z,2.67
2023-03-24T10:44:07.223Z,2.40
2023-03-24T10:46:53.977Z,2.73
2023-03-24T10:49:36.998Z,2.63
2023-03-24T10:52:29.838Z,2.30
2023-03-24T10:55:24.128Z,2.30
2023-03-24T10:58:28.361Z,2.67
2023-03-24T11:01:25.190Z,2.80
2023-03-24T11:04:06.476Z,3.10
2023-03-24T11:07:22.863Z,2.33
2023-03-24T11:10:19.572Z,2.30
2023-03-24T11:13:12.835Z,1.90
2023-03-24T11:15:59.605Z,2.20
2023-03-24T11:19:03.205Z,2.50
2023-03-24T11:21:46.182Z,2.10
2023-03-24T11:24:24.367Z,2.00
2023-03-24T11:27:20.758Z,1.77
2023-03-24T11:29:59.044Z,1.40
2023-03-24T11:32:52.336Z,1.30
2023-03-24T11:35:41.433Z,1.30
2023-03-24T11:38:22.494Z,1.30
2023-03-24T11:41:02.751Z,1.30
2023-03-24T11:43:55.018Z,1.40
2023-03-24T11:46:27.044Z,1.40
2023-03-24T11:49:21.082Z,1.27
2023-03-24T11:52:04.786Z,1.03
2023-03-24T11:54:49.969Z,1.10
2023-03-24T11:57:54.008Z,1.20
2023-03-24T12:00:53.799Z,1.20
2023-03-24T12:04:09.339Z,0.93
2023-03-24T12:07:07.494Z,1.00
2023-03-24T12:09:59.862Z,1.20
2023-03-24T12:12:53.915Z,1.33
2023-03-24T12:15:47.859Z,1.20
2023-03-24T12:18:52.217Z,1.23
2023-03-24T12:21:47.325Z,1.40
2023-03-24T12:24:42.902Z,1.70
2023-03-24T12:27:49.440Z,2.70
2023-03-24T12:30:32.925Z,1.50
2023-03-24T12:33:56.078Z,1.40
2023-03-24T12:36:50.217Z,1.90
2023-03-24T12:39:39.106Z,2.00
2023-03-24T12:42:14.722Z,1.73
2023-03-24T12:45:36.289Z,1.70
2023-03-24T12:48:50.492Z,2.17
2023-03-24T12:51:46.867Z,1.80
2023-03-24T12:54:46.510Z,1.97
2023-03-24T12:57:30.363Z,1.60
2023-03-24T13:00:33.942Z,1.83
2023-03-24T13:03:33.393Z,1.50
2023-03-24T13:06:29.529Z,1.50
2023-03-24T13:09:26.731Z,1.60
2023-03-24T13:12:22.717Z,1.50
2023-03-24T13:15:24.903Z,1.40
2023-03-24T13:18:17.077Z,1.37
2023-03-24T13:20:56.879Z,1.53
2023-03-24T13:24:03.168Z,1.63
2023-03-24T13:26:43.026Z,1.90
2023-03-24T13:29:55.499Z,1.90
2023-03-24T13:32:38.763Z,2.00
2023-03-24T13:35:23.589Z,1.80
2023-03-24T13:38:04.784Z,1.83
2023-03-24T13:40:46.485Z,1.80
2023-03-24T13:43:28.583Z,1.80
2023-03-24T13:46:16.567Z,1.90
2023-03-24T13:49:00.217Z,1.87
2023-03-24T13:51:38.497Z,2.20
2023-03-24T13:54:17.556Z,3.20
2023-03-24T13:57:00.313Z,2.27
2023-03-24T14:00:19.035Z,2.07
2023-03-24T14:03:01.846Z,1.90
2023-03-24T14:06:09.202Z,1.90
2023-03-24T14:09:02.715Z,1.70
2023-03-24T14:12:13.696Z,1.87
2023-03-24T14:15:19.976Z,1.50
2023-03-24T14:17:58.833Z,1.70
2023-03-24T14:21:05.244Z,1.63
2023-03-24T14:23:45.043Z,1.60
2023-03-24T14:26:17.592Z,1.77
2023-03-24T14:28:59.502Z,1.60
2023-03-24T14:31:36.852Z,1.70
2023-03-24T14:34:18.960Z,1.60
2023-03-24T14:37:07.984Z,1.60
2023-03-24T14:39:49.208Z,2.00
2023-03-24T14:43:00.832Z,1.50
2023-03-24T14:46:02.262Z,1.93
2023-03-24T14:49:01.414Z,1.90
2023-03-24T14:51:44.768Z,1.60
2023-03-24T14:54:25.841Z,1.57
2023-03-24T14:57:08.415Z,1.77
2023-03-24T15:00:12.237Z,1.60
2023-03-24T15:02:51.085Z,1.70
2023-03-24T15:05:31.769Z,2.03
2023-03-24T15:08:21.854Z,1.60
2023-03-24T15:11:09.438Z,1.80
2023-03-24T15:14:13.632Z,2.30
2023-03-24T15:16:57.469Z,1.67
2023-03-24T15:20:00.180Z,1.83
2023-03-24T15:22:44.224Z,1.70
2023-03-24T15:25:20.246Z,1.63
2023-03-24T15:28:01.217Z,1.40
2023-03-24T15:30:33.817Z,1.60
2023-03-24T15:33:17.398Z,1.53
2023-03-24T15:35:59.479Z,1.10
2023-03-24T15:38:51.318Z,1.50
2023-03-24T15:41:46.458Z,1.57
2023-03-24T15:44:32.971Z,1.50
2023-03-24T15:47:27.851Z,1.50
2023-03-24T15:50:19.641Z,1.77
2023-03-24T15:53:07.046Z,1.73
2023-03-24T15:56:19.631Z,1.50
2023-03-24T15:58:58.749Z,1.50
2023-03-24T16:01:45.483Z,1.63
2023-03-24T16:04:48.882Z,1.83
2023-03-24T16:07:32.424Z,1.60
2023-03-24T16:10:40.183Z,1.80
2023-03-24T16:13:30.669Z,1.60
2023-03-24T16:16:44.576Z,1.37
2023-03-24T16:19:16.879Z,1.50
2023-03-24T16:21:49.410Z,1.93
2023-03-24T16:24:38.207Z,1.70
2023-03-24T16:27:26.363Z,1.70
2023-03-24T16:30:08.620Z,2.07
2023-03-24T16:32:52.558Z,1.83
2023-03-24T16:35:24.970Z,1.80
2023-03-24T16:38:15.190Z,2.00
2023-03-24T16:40:52.654Z,1.73
2023-03-24T16:43:38.808Z,1.93
2023-03-24T16:46:22.076Z,1.70
2023-03-24T16:49:24.119Z,1.87
2023-03-24T16:52:02.252Z,1.87
2023-03-24T16:54:44.183Z,1.70
2023-03-24T16:57:40.946Z,1.90
2023-03-24T17:00:34.575Z,1.97
2023-03-24T17:03:25.745Z,1.60
2023-03-24T17:06:00.354Z,1.60
2023-03-24T17:08:32.221Z,1.90
2023-03-24T17:11:05.405Z,1.80
2023-03-24T17:13:44.959Z,1.73
2023-03-24T17:16:29.868Z,1.63
2023-03-24T17:19:05.298Z,1.53
2023-03-24T17:22:00.674Z,1.93
2023-03-24T17:24:37.061Z,1.43
2023-03-24T17:27:22.143Z,1.67
2023-03-24T17:30:13.833Z,1.60
2023-03-24T17:33:01.005Z,1.77
2023-03-24T17:35:55.423Z,1.50
2023-03-24T17:38:58.630Z,1.73
2023-03-24T17:41:31.923Z,1.80
2023-03-24T17:44:04.234Z,1.57
2023-03-24T17:46:48.736Z,1.70
2023-03-24T17:49:29.860Z,1.67
2023-03-24T17:52:37.988Z,1.67
2023-03-24T17:55:10.771Z,1.50
2023-03-24T17:58:08.655Z,1.30
2023-03-24T18:00:45.232Z,1.67
2023-03-24T18:03:37.437Z,1.77
2023-03-24T18:06:44.086Z,1.40
2023-03-24T18:09:36.356Z,1.50
2023-03-24T18:12:09.831Z,1.90
2023-03-24T18:14:50.442Z,1.57
2023-03-24T18:17:22.045Z,1.90
2023-03-24T18:19:56.826Z,1.73
2023-03-24T18:22:41.431Z,1.90
2023-03-24T18:25:24.041Z,1.93
2023-03-24T18:28:22.909Z,1.77
2023-03-24T18:31:13.118Z,1.63
2023-03-24T18:33:58.242Z,2.20
2023-03-24T18:37:01.924Z,2.33
2023-03-24T18:39:44.567Z,1.80
2023-03-24T18:42:17.871Z,1.80
2023-03-24T18:44:52.069Z,2.00
2023-03-24T18:47:30.100Z,1.70
2023-03-24T18:50:16.991Z,2.10
2023-03-24T18:53:16.258Z,1.70
2023-03-24T18:55:58.333Z,1.67
2023-03-24T18:58:46.724Z,1.60
2023-03-24T19:01:47.587Z,1.63
2023-03-24T19:04:35.643Z,1.90
2023-03-24T19:07:14.975Z,1.90
2023-03-24T19:10:07.790Z,2.00
2023-03-24T19:13:15.858Z,1.63
2023-03-24T19:15:55.521Z,1.90
2023-03-24T19:18:39.487Z,2.10
2023-03-24T19:21:13.052Z,1.80
2023-03-24T19:24:01.507Z,2.03
2023-03-24T19:27:01.865Z,1.87
2023-03-24T19:29:48.722Z,1.67
2023-03-24T19:32:32.646Z,1.77
2023-03-24T19:35:07.568Z,1.70
2023-03-24T19:37:48.549Z,1.63
2023-03-24T19:40:36.729Z,1.60
2023-03-24T19:43:12.546Z,2.00
2023-03-24T19:46:10.196Z,2.03
2023-03-24T19:48:51.197Z,1.90
2023-03-24T19:51:42.481Z,2.23
2023-03-24T19:54:39.043Z,1.80
2023-03-24T19:57:22.714Z,2.43
2023-03-24T20:00:19.884Z,1.73
2023-03-24T20:03:02.339Z,2.03
2023-03-24T20:05:48.660Z,2.00
2023-03-24T20:08:29.276Z,1.90
2023-03-24T20:11:12.296Z,2.20
2023-03-24T20:14:22.593Z,2.30
2023-03-24T20:16:58.461Z,1.90
2023-03-24T20:19:57.309Z,2.20
2023-03-24T20:22:37.838Z,2.70
2023-03-24T20:25:33.593Z,2.20
2023-03-24T20:28:44.875Z,1.93
2023-03-24T20:31:26.816Z,1.83
2023-03-24T20:34:22.624Z,1.80
2023-03-24T20:37:02.730Z,1.73
2023-03-24T20:39:44.027Z,1.57
2023-03-24T20:42:29.715Z,1.70
2023-03-24T20:45:21.450Z,1.77
2023-03-24T20:48:31.005Z,1.37
2023-03-24T20:51:03.450Z,2.07
2023-03-24T20:54:12.267Z,1.73
2023-03-24T20:57:08.488Z,2.00
2023-03-24T21:00:10.595Z,2.20
2023-03-24T21:02:42.524Z,2.37
2023-03-24T21:05:22.750Z,1.93
2023-03-24T21:08:05.778Z,2.23
2023-03-24T21:10:44.272Z,2.30
2023-03-24T21:13:36.925Z,2.17
2023-03-24T21:16:19.779Z,2.20
2023-03-24T21:19:10.775Z,2.10
2023-03-24T21:21:49.717Z,2.63
2023-03-24T21:24:28.316Z,2.40
2023-03-24T21:27:01.194Z,1.60
2023-03-24T21:29:40.218Z,1.50
2023-03-24T21:32:14.097Z,1.23
